sensor_id;sensor_type;location;lat;lon;timestamp;temperature;humidity
26051;DHT22;13825;53.496;10.020;2023-03-02T01:44:39;0.90;1.00
26051;DHT22;13825;53.496;10.020;2023-03-02T01:47:14;0.90;99.90
26051;DHT22;13825;53.496;10.020;2023-03-02T01:49:47;0.90;90.60
26051;DHT22;13825;53.496;10.020;2023-03-02T01:52:15;0.80;99.90
26051;DHT22;13825;53.496;10.020;2023-03-02T01:54:43;0.80;99.90
26051;DHT22;13825;53.496;10.020;2023-03-02T01:57:17;0.90;99.90
26051;DHT22;13825;53.496;10.020;2023-03-02T01:59:48;0.80;1.00
26051;DHT22;13825;53.496;10.020;2023-03-02T02:02:18;0.70;99.90
26051;DHT22;13825;53.496;10.020;2023-03-02T02:04:54;0.70;99.90
26051;DHT22;13825;53.496;10.020;2023-03-02T02:07:21;0.80;1.00
26051;DHT22;13825;53.496;10.020;2023-03-02T02:09:50;0.80;99.90
26051;DHT22;13825;53.496;10.020;2023-03-02T02:12:21;0.70;1.00
26051;DHT22;13825;53.496;10.020;2023-03-02T02:14:49;0.60;99.90
26051;DHT22;13825;53.496;10.020;2023-03-02T02:17:17;0.60;1.00
26051;DHT22;13825;53.496;10.020;2023-03-02T02:20:00;0.50;1.00
26051;DHT22;13825;53.496;10.020;2023-03-02T02:22:39;0.50;99.90
26051;DHT22;13825;53.496;10.020;2023-03-02T02:25:17;0.40;1.00
26051;DHT22;13825;53.496;10.020;2023-03-02T02:27:47;0.40;99.90
26051;DHT22;13825;53.496;10.020;2023-03-02T02:30:23;0.30;56.10
26051;DHT22;13825;53.496;10.020;2023-03-02T02:32:52;0.50;99.90
26051;DHT22;13825;53.496;10.020;2023-03-02T02:35:22;0.20;1.00
26051;DHT22;13825;53.496;10.020;2023-03-02T02:37:53;0.30;1.00
26051;DHT22;13825;53.496;10.020;2023-03-02T02:40:22;0.40;1.00
26051;DHT22;13825;53.496;10.020;2023-03-02T02:42:51;0.40;99.90
26051;DHT22;13825;53.496;10.020;2023-03-02T02:45:22;0.40;99.90
26051;DHT22;13825;53.496;10.020;2023-03-02T02:47:50;0.50;99.20
26051;DHT22;13825;53.496;10.020;2023-03-02T02:50:19;0.40;1.00
26051;DHT22;13825;53.496;10.020;2023-03-02T02:52:52;0.40;99.90
26051;DHT22;13825;53.496;10.020;2023-03-02T02:55:22;0.50;99.90
26051;DHT22;13825;53.496;10.020;2023-03-02T02:57:55;0.50;47.00
26051;DHT22;13825;53.496;10.020;2023-03-02T03:00:24;0.50;1.00
26051;DHT22;13825;53.496;10.020;2023-03-02T03:02:57;0.30;1.00
26051;DHT22;13825;53.496;10.020;2023-03-02T03:05:24;0.40;1.00
26051;DHT22;13825;53.496;10.020;2023-03-02T03:07:51;0.40;1.00
26051;DHT22;13825;53.496;10.020;2023-03-02T03:10:23;0.30;1.00
26051;DHT22;13825;53.496;10.020;2023-03-02T03:12:54;0.30;99.90
26051;DHT22;13825;53.496;10.020;2023-03-02T03:15:22;0.30;1.00
26051;DHT22;13825;53.496;10.020;2023-03-02T03:17:54;0.30;85.30
26051;DHT22;13825;53.496;10.020;2023-03-02T03:20:23;0.30;1.00
26051;DHT22;13825;53.496;10.020;2023-03-02T03:22:50;0.30;1.00
26051;DHT22;13825;53.496;10.020;2023-03-02T03:25:18;0.30;61.70
26051;DHT22;13825;53.496;10.020;2023-03-02T03:27:46;0.30;99.90
26051;DHT22;13825;53.496;10.020;2023-03-02T03:30:16;0.30;99.90
26051;DHT22;13825;53.496;10.020;2023-03-02T03:32:47;0.30;1.00
26051;DHT22;13825;53.496;10.020;2023-03-02T03:35:16;0.30;99.90
26051;DHT22;13825;53.496;10.020;2023-03-02T03:37:46;0.30;99.90
26051;DHT22;13825;53.496;10.020;2023-03-02T03:40:19;0.20;99.90
26051;DHT22;13825;53.496;10.020;2023-03-02T03:42:51;0.20;99.90
26051;DHT22;13825;53.496;10.020;2023-03-02T03:45:25;0.20;99.90
26051;DHT22;13825;53.496;10.020;2023-03-02T03:47:54;0.00;99.90
26051;DHT22;13825;53.496;10.020;2023-03-02T03:50:27;0.20;1.00
26051;DHT22;13825;53.496;10.020;2023-03-02T03:52:58;0.10;1.00
26051;DHT22;13825;53.496;10.020;2023-03-02T03:55:33;0.20;1.00
26051;DHT22;13825;53.496;10.020;2023-03-02T03:58:05;0.10;1.00
26051;DHT22;13825;53.496;10.020;2023-03-02T04:00:36;0.10;99.90
26051;DHT22;13825;53.496;10.020;2023-03-02T04:03:07;0.10;1.00
26051;DHT22;13825;53.496;10.020;2023-03-02T04:05:37;0.10;99.90
26051;DHT22;13825;53.496;10.020;2023-03-02T04:08:04;0.10;99.90
26051;DHT22;13825;53.496;10.020;2023-03-02T04:10:32;0.10;99.90
26051;DHT22;13825;53.496;10.020;2023-03-02T04:12:59;0.10;99.90
26051;DHT22;13825;53.496;10.020;2023-03-02T04:15:26;0.00;99.90
26051;DHT22;13825;53.496;10.020;2023-03-02T04:17:55;0.00;99.90
26051;DHT22;13825;53.496;10.020;2023-03-02T04:20:23;0.00;99.90
26051;DHT22;13825;53.496;10.020;2023-03-02T04:22:52;0.00;99.90
26051;DHT22;13825;53.496;10.020;2023-03-02T04:25:28;0.00;1.00
26051;DHT22;13825;53.496;10.020;2023-03-02T04:27:55;-0.10;99.90
26051;DHT22;13825;53.496;10.020;2023-03-02T04:30:37;0.00;99.90
26051;DHT22;13825;53.496;10.020;2023-03-02T04:33:13;0.10;99.90
26051;DHT22;13825;53.496;10.020;2023-03-02T04:35:56;0.00;87.60
26051;DHT22;13825;53.496;10.020;2023-03-02T04:38:29;0.10;99.90
26051;DHT22;13825;53.496;10.020;2023-03-02T04:40:58;0.10;99.90
26051;DHT22;13825;53.496;10.020;2023-03-02T04:43:25;-0.10;99.90
26051;DHT22;13825;53.496;10.020;2023-03-02T04:45:52;0.00;1.00
26051;DHT22;13825;53.496;10.020;2023-03-02T04:48:21;0.00;99.90
26051;DHT22;13825;53.496;10.020;2023-03-02T04:50:49;0.00;99.90
26051;DHT22;13825;53.496;10.020;2023-03-02T04:53:16;0.00;99.90
26051;DHT22;13825;53.496;10.020;2023-03-02T04:55:43;0.00;99.90
26051;DHT22;13825;53.496;10.020;2023-03-02T04:58:19;0.00;99.90
26051;DHT22;13825;53.496;10.020;2023-03-02T05:00:46;0.00;1.00
26051;DHT22;13825;53.496;10.020;2023-03-02T05:03:16;0.00;99.90
26051;DHT22;13825;53.496;10.020;2023-03-02T05:06:14;0.10;1.00
26051;DHT22;13825;53.496;10.020;2023-03-02T05:08:56;0.10;99.90
26051;DHT22;13825;53.496;10.020;2023-03-02T05:11:25;-0.10;99.90
26051;DHT22;13825;53.496;10.020;2023-03-02T05:13:54;0.00;99.90
26051;DHT22;13825;53.496;10.020;2023-03-02T05:16:26;-0.10;99.90
26051;DHT22;13825;53.496;10.020;2023-03-02T05:18:54;0.00;99.90
26051;DHT22;13825;53.496;10.020;2023-03-02T05:21:23;-0.10;99.90
26051;DHT22;13825;53.496;10.020;2023-03-02T05:23:50;0.00;99.90
26051;DHT22;13825;53.496;10.020;2023-03-02T05:26:17;0.00;1.00
26051;DHT22;13825;53.496;10.020;2023-03-02T05:28:44;0.00;99.90
26051;DHT22;13825;53.496;10.020;2023-03-02T05:31:17;0.10;1.00
26051;DHT22;13825;53.496;10.020;2023-03-02T05:33:45;0.10;99.90
26051;DHT22;13825;53.496;10.020;2023-03-02T05:36:12;0.10;1.00
26051;DHT22;13825;53.496;10.020;2023-03-02T05:38:41;0.00;1.00
26051;DHT22;13825;53.496;10.020;2023-03-02T05:41:08;0.10;1.00
26051;DHT22;13825;53.496;10.020;2023-03-02T05:43:36;0.10;1.00
26051;DHT22;13825;53.496;10.020;2023-03-02T05:46:03;0.20;99.90
26051;DHT22;13825;53.496;10.020;2023-03-02T05:48:31;0.20;99.90
26051;DHT22;13825;53.496;10.020;2023-03-02T05:50:58;0.20;99.90
26051;DHT22;13825;53.496;10.020;2023-03-02T05:53:28;0.20;99.90
26051;DHT22;13825;53.496;10.020;2023-03-02T05:55:57;0.10;99.90
26051;DHT22;13825;53.496;10.020;2023-03-02T05:58:24;0.10;1.00
26051;DHT22;13825;53.496;10.020;2023-03-02T06:00:51;0.10;99.90
26051;DHT22;13825;53.496;10.020;2023-03-02T06:03:21;0.10;99.90
26051;DHT22;13825;53.496;10.020;2023-03-02T06:05:49;0.10;99.90
26051;DHT22;13825;53.496;10.020;2023-03-02T06:08:17;0.10;99.90
26051;DHT22;13825;53.496;10.020;2023-03-02T06:10:47;0.10;99.90
26051;DHT22;13825;53.496;10.020;2023-03-02T06:13:17;0.10;1.00
26051;DHT22;13825;53.496;10.020;2023-03-02T06:15:56;0.00;99.90
26051;DHT22;13825;53.496;10.020;2023-03-02T06:21:10;0.10;1.00
26051;DHT22;13825;53.496;10.020;2023-03-02T06:23:39;0.20;99.90
26051;DHT22;13825;53.496;10.020;2023-03-02T06:26:07;0.10;99.90
26051;DHT22;13825;53.496;10.020;2023-03-02T06:28:42;0.10;38.40
26051;DHT22;13825;53.496;10.020;2023-03-02T06:31:12;0.10;91.60
26051;DHT22;13825;53.496;10.020;2023-03-02T06:33:42;0.10;99.90
26051;DHT22;13825;53.496;10.020;2023-03-02T06:36:12;0.20;99.90
26051;DHT22;13825;53.496;10.020;2023-03-02T06:38:41;0.20;1.00
26051;DHT22;13825;53.496;10.020;2023-03-02T06:41:08;0.30;99.90
26051;DHT22;13825;53.496;10.020;2023-03-02T06:43:38;0.30;1.00
26051;DHT22;13825;53.496;10.020;2023-03-02T06:46:07;0.30;1.00
26051;DHT22;13825;53.496;10.020;2023-03-02T06:48:34;0.20;1.00
26051;DHT22;13825;53.496;10.020;2023-03-02T06:51:01;0.20;1.00
26051;DHT22;13825;53.496;10.020;2023-03-02T06:53:30;0.40;1.00
26051;DHT22;13825;53.496;10.020;2023-03-02T06:55:57;0.20;1.00
26051;DHT22;13825;53.496;10.020;2023-03-02T06:58:24;0.30;42.90
26051;DHT22;13825;53.496;10.020;2023-03-02T07:01:03;0.30;1.00
26051;DHT22;13825;53.496;10.020;2023-03-02T07:03:33;0.30;1.00
26051;DHT22;13825;53.496;10.020;2023-03-02T07:06:01;0.20;1.00
26051;DHT22;13825;53.496;10.020;2023-03-02T07:08:28;0.10;9.20
26051;DHT22;13825;53.496;10.020;2023-03-02T07:10:56;0.10;1.00
26051;DHT22;13825;53.496;10.020;2023-03-02T07:13:23;0.20;99.90
26051;DHT22;13825;53.496;10.020;2023-03-02T07:15:53;0.30;99.90
26051;DHT22;13825;53.496;10.020;2023-03-02T07:18:24;0.40;99.90
26051;DHT22;13825;53.496;10.020;2023-03-02T07:20:53;0.30;99.90
26051;DHT22;13825;53.496;10.020;2023-03-02T07:23:32;0.50;99.90
26051;DHT22;13825;53.496;10.020;2023-03-02T07:30:01;0.30;99.90
26051;DHT22;13825;53.496;10.020;2023-03-02T07:32:28;0.30;1.00
26051;DHT22;13825;53.496;10.020;2023-03-02T07:34:55;0.40;1.00
26051;DHT22;13825;53.496;10.020;2023-03-02T07:37:24;0.40;1.00
26051;DHT22;13825;53.496;10.020;2023-03-02T07:39:51;0.50;1.00
26051;DHT22;13825;53.496;10.020;2023-03-02T07:42:24;0.50;1.00
26051;DHT22;13825;53.496;10.020;2023-03-02T07:44:51;0.50;99.90
26051;DHT22;13825;53.496;10.020;2023-03-02T07:47:20;0.60;99.90
26051;DHT22;13825;53.496;10.020;2023-03-02T07:49:55;0.50;99.90
26051;DHT22;13825;53.496;10.020;2023-03-02T07:52:33;0.50;99.90
26051;DHT22;13825;53.496;10.020;2023-03-02T07:55:00;0.50;60.40
26051;DHT22;13825;53.496;10.020;2023-03-02T07:57:29;0.40;99.90
26051;DHT22;13825;53.496;10.020;2023-03-02T07:59:56;0.60;99.90
26051;DHT22;13825;53.496;10.020;2023-03-02T08:02:23;0.50;19.70
26051;DHT22;13825;53.496;10.020;2023-03-02T08:04:50;0.50;99.90
26051;DHT22;13825;53.496;10.020;2023-03-02T08:07:18;0.60;99.90
26051;DHT22;13825;53.496;10.020;2023-03-02T08:09:49;0.60;1.00
26051;DHT22;13825;53.496;10.020;2023-03-02T08:12:23;0.70;99.90
26051;DHT22;13825;53.496;10.020;2023-03-02T08:14:59;0.70;1.00
26051;DHT22;13825;53.496;10.020;2023-03-02T08:17:26;0.70;1.00
26051;DHT22;13825;53.496;10.020;2023-03-02T08:19:56;0.70;99.90
26051;DHT22;13825;53.496;10.020;2023-03-02T08:22:53;0.70;99.90
26051;DHT22;13825;53.496;10.020;2023-03-02T08:25:29;0.70;99.90
26051;DHT22;13825;53.496;10.020;2023-03-02T08:27:57;0.80;1.00
26051;DHT22;13825;53.496;10.020;2023-03-02T08:30:44;1.00;1.00
26051;DHT22;13825;53.496;10.020;2023-03-02T08:33:11;1.10;99.90
26051;DHT22;13825;53.496;10.020;2023-03-02T08:35:56;1.00;1.00
26051;DHT22;13825;53.496;10.020;2023-03-02T08:38:25;1.10;99.90
26051;DHT22;13825;53.496;10.020;2023-03-02T08:40:58;1.10;99.90
26051;DHT22;13825;53.496;10.020;2023-03-02T08:43:34;1.20;99.90
26051;DHT22;13825;53.496;10.020;2023-03-02T08:46:01;1.40;1.00
26051;DHT22;13825;53.496;10.020;2023-03-02T08:48:50;1.30;99.90
26051;DHT22;13825;53.496;10.020;2023-03-02T08:51:31;1.20;1.00
26051;DHT22;13825;53.496;10.020;2023-03-02T08:53:58;1.20;99.90
26051;DHT22;13825;53.496;10.020;2023-03-02T08:56:29;1.40;1.00
26051;DHT22;13825;53.496;10.020;2023-03-02T08:58:58;1.40;1.00
26051;DHT22;13825;53.496;10.020;2023-03-02T09:01:27;1.30;1.00
26051;DHT22;13825;53.496;10.020;2023-03-02T09:03:54;1.30;1.00
26051;DHT22;13825;53.496;10.020;2023-03-02T09:06:22;1.40;99.90
26051;DHT22;13825;53.496;10.020;2023-03-02T09:08:50;1.40;1.00
26051;DHT22;13825;53.496;10.020;2023-03-02T09:11:17;1.50;99.90
26051;DHT22;13825;53.496;10.020;2023-03-02T09:52:40;2.10;99.90
26051;DHT22;13825;53.496;10.020;2023-03-02T09:55:14;2.10;99.90
26051;DHT22;13825;53.496;10.020;2023-03-02T09:57:42;2.00;99.90
26051;DHT22;13825;53.496;10.020;2023-03-02T10:00:12;1.90;1.00
26051;DHT22;13825;53.496;10.020;2023-03-02T10:02:46;1.90;1.00
26051;DHT22;13825;53.496;10.020;2023-03-02T10:05:17;1.90;99.90
26051;DHT22;13825;53.496;10.020;2023-03-02T10:07:47;2.00;1.00
26051;DHT22;13825;53.496;10.020;2023-03-02T10:10:23;1.90;1.00
26051;DHT22;13825;53.496;10.020;2023-03-02T10:13:02;2.20;99.90
26051;DHT22;13825;53.496;10.020;2023-03-02T10:15:36;2.20;99.90
26051;DHT22;13825;53.496;10.020;2023-03-02T10:18:12;2.30;1.00
26051;DHT22;13825;53.496;10.020;2023-03-02T10:20:44;2.10;11.90
26051;DHT22;13825;53.496;10.020;2023-03-02T10:23:26;2.20;66.50
26051;DHT22;13825;53.496;10.020;2023-03-02T10:26:02;2.10;1.00
26051;DHT22;13825;53.496;10.020;2023-03-02T10:28:36;2.10;99.90
26051;DHT22;13825;53.496;10.020;2023-03-02T10:31:08;2.20;99.90
26051;DHT22;13825;53.496;10.020;2023-03-02T10:33:37;2.10;99.90
26051;DHT22;13825;53.496;10.020;2023-03-02T10:36:17;2.20;67.10
26051;DHT22;13825;53.496;10.020;2023-03-02T10:38:46;2.20;53.10
26051;DHT22;13825;53.496;10.020;2023-03-02T10:41:17;2.30;1.00
26051;DHT22;13825;53.496;10.020;2023-03-02T10:43:48;2.40;1.00
26051;DHT22;13825;53.496;10.020;2023-03-02T10:46:17;2.30;1.00
26051;DHT22;13825;53.496;10.020;2023-03-02T10:48:49;2.30;99.90
26051;DHT22;13825;53.496;10.020;2023-03-02T10:51:25;2.40;14.00
26051;DHT22;13825;53.496;10.020;2023-03-02T10:54:05;2.40;1.00
26051;DHT22;13825;53.496;10.020;2023-03-02T10:56:33;2.60;1.00
26051;DHT22;13825;53.496;10.020;2023-03-02T10:59:00;2.50;1.00
26051;DHT22;13825;53.496;10.020;2023-03-02T11:01:29;2.60;1.00
26051;DHT22;13825;53.496;10.020;2023-03-02T11:03:59;2.60;1.00
26051;DHT22;13825;53.496;10.020;2023-03-02T11:06:27;2.60;99.90
26051;DHT22;13825;53.496;10.020;2023-03-02T11:09:03;2.60;99.90
26051;DHT22;13825;53.496;10.020;2023-03-02T11:11:31;2.70;1.00
26051;DHT22;13825;53.496;10.020;2023-03-02T11:14:07;2.50;99.90
26051;DHT22;13825;53.496;10.020;2023-03-02T11:16:34;2.60;99.90
26051;DHT22;13825;53.496;10.020;2023-03-02T11:19:06;2.60;99.90
26051;DHT22;13825;53.496;10.020;2023-03-02T11:21:39;2.70;1.00
26051;DHT22;13825;53.496;10.020;2023-03-02T11:24:13;2.50;99.90
26051;DHT22;13825;53.496;10.020;2023-03-02T11:26:46;2.50;99.90
26051;DHT22;13825;53.496;10.020;2023-03-02T11:29:24;2.50;61.10
26051;DHT22;13825;53.496;10.020;2023-03-02T11:32:01;2.50;14.50
26051;DHT22;13825;53.496;10.020;2023-03-02T11:34:33;2.70;99.90
26051;DHT22;13825;53.496;10.020;2023-03-02T11:37:13;2.80;99.90
26051;DHT22;13825;53.496;10.020;2023-03-02T11:39:59;2.90;1.00
26051;DHT22;13825;53.496;10.020;2023-03-02T11:42:31;3.00;1.00
26051;DHT22;13825;53.496;10.020;2023-03-02T11:45:19;3.00;1.00
26051;DHT22;13825;53.496;10.020;2023-03-02T11:47:50;3.00;1.00
26051;DHT22;13825;53.496;10.020;2023-03-02T11:50:19;2.90;1.00
26051;DHT22;13825;53.496;10.020;2023-03-02T11:52:49;2.80;1.00
26051;DHT22;13825;53.496;10.020;2023-03-02T11:55:21;2.80;11.30
26051;DHT22;13825;53.496;10.020;2023-03-02T11:57:51;3.00;11.00
26051;DHT22;13825;53.496;10.020;2023-03-02T12:00:29;2.90;1.00
26051;DHT22;13825;53.496;10.020;2023-03-02T12:03:02;2.80;1.00
26051;DHT22;13825;53.496;10.020;2023-03-02T12:05:31;2.90;1.00
26051;DHT22;13825;53.496;10.020;2023-03-02T12:08:02;3.00;1.00
26051;DHT22;13825;53.496;10.020;2023-03-02T12:10:35;3.10;1.00
26051;DHT22;13825;53.496;10.020;2023-03-02T12:13:11;3.40;1.00
26051;DHT22;13825;53.496;10.020;2023-03-02T12:18:42;3.30;1.00
26051;DHT22;13825;53.496;10.020;2023-03-02T12:21:18;3.40;1.00
26051;DHT22;13825;53.496;10.020;2023-03-02T12:23:57;3.40;1.00
26051;DHT22;13825;53.496;10.020;2023-03-02T12:26:34;3.40;1.00
26051;DHT22;13825;53.496;10.020;2023-03-02T12:29:05;3.10;1.00
26051;DHT22;13825;53.496;10.020;2023-03-02T12:31:43;3.00;99.90
26051;DHT22;13825;53.496;10.020;2023-03-02T12:34:32;3.20;14.30
26051;DHT22;13825;53.496;10.020;2023-03-02T12:37:04;3.20;25.60
26051;DHT22;13825;53.496;10.020;2023-03-02T12:39:48;3.20;99.90
26051;DHT22;13825;53.496;10.020;2023-03-02T12:42:46;3.40;99.90
26051;DHT22;13825;53.496;10.020;2023-03-02T12:45:23;3.40;78.50
26051;DHT22;13825;53.496;10.020;2023-03-02T12:48:01;3.30;99.90
26051;DHT22;13825;53.496;10.020;2023-03-02T12:50:32;3.50;99.90
26051;DHT22;13825;53.496;10.020;2023-03-02T12:53:12;3.50;99.90
26051;DHT22;13825;53.496;10.020;2023-03-02T12:55:41;3.30;99.90
26051;DHT22;13825;53.496;10.020;2023-03-02T12:58:16;3.30;99.90
26051;DHT22;13825;53.496;10.020;2023-03-02T13:00:49;3.30;99.90
26051;DHT22;13825;53.496;10.020;2023-03-02T13:03:16;3.50;99.90
26051;DHT22;13825;53.496;10.020;2023-03-02T13:05:45;3.20;93.10
26051;DHT22;13825;53.496;10.020;2023-03-02T13:08:16;3.30;29.90
26051;DHT22;13825;53.496;10.020;2023-03-02T13:10:48;3.40;99.90
26051;DHT22;13825;53.496;10.020;2023-03-02T13:15:54;3.60;99.90
26051;DHT22;13825;53.496;10.020;2023-03-02T13:18:24;3.50;99.90
26051;DHT22;13825;53.496;10.020;2023-03-02T13:20:52;3.60;99.90
26051;DHT22;13825;53.496;10.020;2023-03-02T13:23:20;3.60;99.90
26051;DHT22;13825;53.496;10.020;2023-03-02T13:25:50;3.60;99.90
26051;DHT22;13825;53.496;10.020;2023-03-02T13:28:23;3.80;30.70
26051;DHT22;13825;53.496;10.020;2023-03-02T13:30:57;4.00;28.90
26051;DHT22;13825;53.496;10.020;2023-03-02T13:33:26;3.90;99.90
26051;DHT22;13825;53.496;10.020;2023-03-02T13:35:54;4.10;52.40
26051;DHT22;13825;53.496;10.020;2023-03-02T13:38:23;3.90;63.80
26051;DHT22;13825;53.496;10.020;2023-03-02T13:40:52;3.70;99.90
26051;DHT22;13825;53.496;10.020;2023-03-02T13:43:34;3.60;99.90
26051;DHT22;13825;53.496;10.020;2023-03-02T13:46:04;3.80;99.90
26051;DHT22;13825;53.496;10.020;2023-03-02T13:48:32;3.80;99.90
26051;DHT22;13825;53.496;10.020;2023-03-02T13:51:01;3.90;99.90
26051;DHT22;13825;53.496;10.020;2023-03-02T13:53:30;3.80;61.80
26051;DHT22;13825;53.496;10.020;2023-03-02T13:55:59;3.90;29.80
26051;DHT22;13825;53.496;10.020;2023-03-02T13:58:27;3.80;9.20
26051;DHT22;13825;53.496;10.020;2023-03-02T14:00:57;3.80;44.20
26051;DHT22;13825;53.496;10.020;2023-03-02T14:03:28;3.60;24.50
26051;DHT22;13825;53.496;10.020;2023-03-02T14:05:57;3.70;99.90
26051;DHT22;13825;53.496;10.020;2023-03-02T14:08:24;3.60;99.90
26051;DHT22;13825;53.496;10.020;2023-03-02T14:10:53;3.60;99.90
26051;DHT22;13825;53.496;10.020;2023-03-02T14:18:49;3.60;99.90
26051;DHT22;13825;53.496;10.020;2023-03-02T14:21:19;3.60;99.90
26051;DHT22;13825;53.496;10.020;2023-03-02T14:23:48;3.70;99.90
26051;DHT22;13825;53.496;10.020;2023-03-02T14:26:28;3.90;99.90
26051;DHT22;13825;53.496;10.020;2023-03-02T14:28:57;3.70;1.00
26051;DHT22;13825;53.496;10.020;2023-03-02T14:31:24;3.80;99.90
26051;DHT22;13825;53.496;10.020;2023-03-02T14:33:53;3.70;57.80
26051;DHT22;13825;53.496;10.020;2023-03-02T14:36:26;3.70;99.90
26051;DHT22;13825;53.496;10.020;2023-03-02T14:38:55;3.70;99.90
26051;DHT22;13825;53.496;10.020;2023-03-02T14:41:24;3.60;99.90
26051;DHT22;13825;53.496;10.020;2023-03-02T14:43:51;3.80;1.00
26051;DHT22;13825;53.496;10.020;2023-03-02T14:46:18;3.80;99.90
26051;DHT22;13825;53.496;10.020;2023-03-02T14:48:45;3.80;1.00
26051;DHT22;13825;53.496;10.020;2023-03-02T14:51:20;3.70;99.90
26051;DHT22;13825;53.496;10.020;2023-03-02T14:53:48;3.70;60.40
26051;DHT22;13825;53.496;10.020;2023-03-02T14:56:18;3.60;99.90
26051;DHT22;13825;53.496;10.020;2023-03-02T14:58:47;3.80;99.90
26051;DHT22;13825;53.496;10.020;2023-03-02T15:01:16;3.80;4.50
26051;DHT22;13825;53.496;10.020;2023-03-02T15:03:43;3.80;99.90
26051;DHT22;13825;53.496;10.020;2023-03-02T15:06:25;3.80;99.90
26051;DHT22;13825;53.496;10.020;2023-03-02T15:08:57;3.70;99.90
26051;DHT22;13825;53.496;10.020;2023-03-02T15:11:26;3.60;99.90
26051;DHT22;13825;53.496;10.020;2023-03-02T15:37:11;3.80;99.90
26051;DHT22;13825;53.496;10.020;2023-03-02T15:39:38;3.90;83.30
26051;DHT22;13825;53.496;10.020;2023-03-02T15:42:05;3.90;99.90
26051;DHT22;13825;53.496;10.020;2023-03-02T15:44:33;3.70;99.90
26051;DHT22;13825;53.496;10.020;2023-03-02T15:47:00;3.60;1.00
26051;DHT22;13825;53.496;10.020;2023-03-02T15:49:27;3.50;99.90
26051;DHT22;13825;53.496;10.020;2023-03-02T15:51:57;3.40;99.90
26051;DHT22;13825;53.496;10.020;2023-03-02T15:54:26;3.40;1.00
26051;DHT22;13825;53.496;10.020;2023-03-02T15:57:00;3.40;99.90
26051;DHT22;13825;53.496;10.020;2023-03-02T15:59:28;3.50;1.00
26051;DHT22;13825;53.496;10.020;2023-03-02T16:01:55;3.60;99.90
26051;DHT22;13825;53.496;10.020;2023-03-02T16:04:24;3.50;1.00
26051;DHT22;13825;53.496;10.020;2023-03-02T16:06:51;3.60;99.90
26051;DHT22;13825;53.496;10.020;2023-03-02T16:09:19;3.50;99.90
26051;DHT22;13825;53.496;10.020;2023-03-02T16:11:48;3.40;99.90
26051;DHT22;13825;53.496;10.020;2023-03-02T16:14:16;3.50;99.90
26051;DHT22;13825;53.496;10.020;2023-03-02T16:16:44;3.50;99.90
26051;DHT22;13825;53.496;10.020;2023-03-02T16:19:15;3.50;99.90
26051;DHT22;13825;53.496;10.020;2023-03-02T16:21:42;3.40;99.90
26051;DHT22;13825;53.496;10.020;2023-03-02T16:24:10;3.40;99.90
26051;DHT22;13825;53.496;10.020;2023-03-02T16:26:37;3.40;99.90
26051;DHT22;13825;53.496;10.020;2023-03-02T16:29:06;3.30;99.90
26051;DHT22;13825;53.496;10.020;2023-03-02T16:31:34;3.30;99.90
26051;DHT22;13825;53.496;10.020;2023-03-02T16:34:03;3.20;1.00
26051;DHT22;13825;53.496;10.020;2023-03-02T16:36:32;3.20;1.00
26051;DHT22;13825;53.496;10.020;2023-03-02T16:39:00;3.30;1.00
26051;DHT22;13825;53.496;10.020;2023-03-02T16:41:27;3.30;99.90
26051;DHT22;13825;53.496;10.020;2023-03-02T16:43:55;3.30;99.90
26051;DHT22;13825;53.496;10.020;2023-03-02T16:46:25;3.20;99.90
26051;DHT22;13825;53.496;10.020;2023-03-02T16:48:53;3.10;99.90
26051;DHT22;13825;53.496;10.020;2023-03-02T16:51:20;3.10;99.90
26051;DHT22;13825;53.496;10.020;2023-03-02T16:53:48;3.00;99.90
26051;DHT22;13825;53.496;10.020;2023-03-02T16:56:15;3.00;99.90
26051;DHT22;13825;53.496;10.020;2023-03-02T16:58:42;2.90;99.90
26051;DHT22;13825;53.496;10.020;2023-03-02T17:01:11;2.90;99.90
26051;DHT22;13825;53.496;10.020;2023-03-02T17:03:41;2.90;1.00
26051;DHT22;13825;53.496;10.020;2023-03-02T17:06:10;2.80;99.90
26051;DHT22;13825;53.496;10.020;2023-03-02T17:08:37;2.80;1.00
26051;DHT22;13825;53.496;10.020;2023-03-02T17:11:04;2.80;99.90
26051;DHT22;13825;53.496;10.020;2023-03-02T17:13:31;2.80;1.00
26051;DHT22;13825;53.496;10.020;2023-03-02T17:15:58;2.70;99.90
26051;DHT22;13825;53.496;10.020;2023-03-02T17:18:26;2.80;1.00
26051;DHT22;13825;53.496;10.020;2023-03-02T17:20:59;2.70;1.00
26051;DHT22;13825;53.496;10.020;2023-03-02T17:23:27;2.80;1.00
26051;DHT22;13825;53.496;10.020;2023-03-02T17:25:55;2.80;1.00
26051;DHT22;13825;53.496;10.020;2023-03-02T17:28:23;2.70;99.90
26051;DHT22;13825;53.496;10.020;2023-03-02T17:30:50;2.70;99.90
26051;DHT22;13825;53.496;10.020;2023-03-02T17:33:17;2.70;1.00
26051;DHT22;13825;53.496;10.020;2023-03-02T17:35:44;2.70;99.90
26051;DHT22;13825;53.496;10.020;2023-03-02T17:38:15;2.70;1.00
26051;DHT22;13825;53.496;10.020;2023-03-02T17:40:42;2.70;99.90
26051;DHT22;13825;53.496;10.020;2023-03-02T17:43:09;2.70;99.90
26051;DHT22;13825;53.496;10.020;2023-03-02T17:45:37;2.70;99.90
26051;DHT22;13825;53.496;10.020;2023-03-02T17:48:05;2.70;99.90
26051;DHT22;13825;53.496;10.020;2023-03-02T17:50:34;2.60;1.00
26051;DHT22;13825;53.496;10.020;2023-03-02T17:53:13;2.70;24.00
26051;DHT22;13825;53.496;10.020;2023-03-02T17:55:43;2.70;1.00
26051;DHT22;13825;53.496;10.020;2023-03-02T17:58:10;2.70;54.30
26051;DHT22;13825;53.496;10.020;2023-03-02T18:00:38;2.60;29.30
26051;DHT22;13825;53.496;10.020;2023-03-02T18:03:08;2.60;16.60
26051;DHT22;13825;53.496;10.020;2023-03-02T18:05:35;2.70;99.90
26051;DHT22;13825;53.496;10.020;2023-03-02T18:08:02;2.70;84.90
26051;DHT22;13825;53.496;10.020;2023-03-02T18:10:31;2.70;1.00
26051;DHT22;13825;53.496;10.020;2023-03-02T18:12:57;2.70;39.00
26051;DHT22;13825;53.496;10.020;2023-03-02T18:15:24;2.70;15.20
26051;DHT22;13825;53.496;10.020;2023-03-02T18:17:53;2.70;91.90
26051;DHT22;13825;53.496;10.020;2023-03-02T18:20:20;2.70;99.90
26051;DHT22;13825;53.496;10.020;2023-03-02T18:22:47;2.60;24.20
26051;DHT22;13825;53.496;10.020;2023-03-02T18:25:14;2.70;99.90
26051;DHT22;13825;53.496;10.020;2023-03-02T18:27:42;2.70;99.90
26051;DHT22;13825;53.496;10.020;2023-03-02T18:30:10;2.70;99.90
26051;DHT22;13825;53.496;10.020;2023-03-02T18:32:37;2.70;94.60
26051;DHT22;13825;53.496;10.020;2023-03-02T18:35:08;2.60;1.00
26051;DHT22;13825;53.496;10.020;2023-03-02T18:37:35;2.70;99.90
26051;DHT22;13825;53.496;10.020;2023-03-02T18:40:02;2.80;1.00
26051;DHT22;13825;53.496;10.020;2023-03-02T18:42:31;2.70;99.90
26051;DHT22;13825;53.496;10.020;2023-03-02T18:44:59;2.70;1.00
26051;DHT22;13825;53.496;10.020;2023-03-02T18:47:29;2.60;1.00
26051;DHT22;13825;53.496;10.020;2023-03-02T18:49:58;2.60;1.00
26051;DHT22;13825;53.496;10.020;2023-03-02T18:52:25;2.70;99.90
26051;DHT22;13825;53.496;10.020;2023-03-02T18:54:52;2.60;1.00
26051;DHT22;13825;53.496;10.020;2023-03-02T18:57:22;2.60;1.00
26051;DHT22;13825;53.496;10.020;2023-03-02T18:59:52;2.70;68.70